sensor_id;sensor_type;location;lat;lon;timestamp;pressure;altitude;pressure_sealevel;temperature
72405;BMP280;60395;52.020;113.548;2023-06-14T00:01:37;92346.75;;;32.88
72405;BMP280;60395;52.020;113.548;2023-06-14T00:04:41;92347.69;;;31.47
72405;BMP280;60395;52.020;113.548;2023-06-14T00:07:44;92354.59;;;30.82
72405;BMP280;60395;52.020;113.548;2023-06-14T00:10:51;92358.50;;;31.03
72405;BMP280;60395;52.020;113.548;2023-06-14T00:13:54;92348.28;;;31.91
72405;BMP280;60395;52.020;113.548;2023-06-14T00:16:57;92363.63;;;32.95
72405;BMP280;60395;52.020;113.548;2023-06-14T00:20:02;92359.41;;;34.06
72405;BMP280;60395;52.020;113.548;2023-06-14T00:23:08;92361.88;;;34.92
72405;BMP280;60395;52.020;113.548;2023-06-14T00:26:12;92370.50;;;34.22
72405;BMP280;60395;52.020;113.548;2023-06-14T00:29:17;92372.50;;;33.42
72405;BMP280;60395;52.020;113.548;2023-06-14T00:32:20;92369.94;;;34.99
72405;BMP280;60395;52.020;113.548;2023-06-14T00:35:30;92365.44;;;33.67
72405;BMP280;60395;52.020;113.548;2023-06-14T00:38:33;92361.44;;;33.55
72405;BMP280;60395;52.020;113.548;2023-06-14T00:41:37;92357.41;;;32.73
72405;BMP280;60395;52.020;113.548;2023-06-14T00:44:40;92362.72;;;32.38
72405;BMP280;60395;52.020;113.548;2023-06-14T00:47:45;92362.28;;;31.50
72405;BMP280;60395;52.020;113.548;2023-06-14T00:50:51;92367.81;;;30.41
72405;BMP280;60395;52.020;113.548;2023-06-14T00:53:55;92368.06;;;29.39
72405;BMP280;60395;52.020;113.548;2023-06-14T00:56:58;92372.00;;;28.92
72405;BMP280;60395;52.020;113.548;2023-06-14T01:00:03;92371.22;;;28.72
72405;BMP280;60395;52.020;113.548;2023-06-14T01:03:07;92365.09;;;28.30
72405;BMP280;60395;52.020;113.548;2023-06-14T01:06:38;92366.22;;;27.90
72405;BMP280;60395;52.020;113.548;2023-06-14T01:13:18;92353.72;;;26.98
72405;BMP280;60395;52.020;113.548;2023-06-14T01:16:23;92360.09;;;26.64
72405;BMP280;60395;52.020;113.548;2023-06-14T01:19:28;92356.97;;;26.38
72405;BMP280;60395;52.020;113.548;2023-06-14T01:22:31;92351.00;;;26.14
72405;BMP280;60395;52.020;113.548;2023-06-14T01:25:34;92352.84;;;25.77
72405;BMP280;60395;52.020;113.548;2023-06-14T01:28:40;92342.63;;;25.30
72405;BMP280;60395;52.020;113.548;2023-06-14T01:31:43;92344.47;;;24.99
72405;BMP280;60395;52.020;113.548;2023-06-14T01:34:48;92334.41;;;24.83
72405;BMP280;60395;52.020;113.548;2023-06-14T01:37:51;92327.63;;;24.66
72405;BMP280;60395;52.020;113.548;2023-06-14T01:40:57;92324.38;;;24.40
72405;BMP280;60395;52.020;113.548;2023-06-14T01:44:02;92325.94;;;24.20
72405;BMP280;60395;52.020;113.548;2023-06-14T01:47:08;92319.59;;;23.81
72405;BMP280;60395;52.020;113.548;2023-06-14T01:50:11;92320.03;;;23.13
72405;BMP280;60395;52.020;113.548;2023-06-14T01:53:15;92325.63;;;22.73
72405;BMP280;60395;52.020;113.548;2023-06-14T01:56:19;92320.59;;;22.96
72405;BMP280;60395;52.020;113.548;2023-06-14T01:59:23;92316.03;;;23.48
72405;BMP280;60395;52.020;113.548;2023-06-14T02:02:27;92328.44;;;23.88
72405;BMP280;60395;52.020;113.548;2023-06-14T02:05:30;92328.94;;;24.08
72405;BMP280;60395;52.020;113.548;2023-06-14T02:08:34;92323.72;;;24.23
72405;BMP280;60395;52.020;113.548;2023-06-14T02:11:37;92328.94;;;24.16
72405;BMP280;60395;52.020;113.548;2023-06-14T02:14:40;92324.97;;;23.98
72405;BMP280;60395;52.020;113.548;2023-06-14T02:17:45;92316.44;;;24.47
72405;BMP280;60395;52.020;113.548;2023-06-14T02:20:51;92326.56;;;24.38
72405;BMP280;60395;52.020;113.548;2023-06-14T02:23:54;92323.25;;;24.37
72405;BMP280;60395;52.020;113.548;2023-06-14T02:26:58;92327.69;;;24.07
72405;BMP280;60395;52.020;113.548;2023-06-14T02:30:01;92324.00;;;23.67
72405;BMP280;60395;52.020;113.548;2023-06-14T02:33:07;92324.13;;;23.65
72405;BMP280;60395;52.020;113.548;2023-06-14T02:36:10;92322.03;;;23.49
72405;BMP280;60395;52.020;113.548;2023-06-14T02:39:13;92320.22;;;23.28
72405;BMP280;60395;52.020;113.548;2023-06-14T02:42:17;92311.13;;;23.34
72405;BMP280;60395;52.020;113.548;2023-06-14T02:45:22;92310.44;;;22.61
72405;BMP280;60395;52.020;113.548;2023-06-14T02:48:25;92305.44;;;22.65
72405;BMP280;60395;52.020;113.548;2023-06-14T02:51:28;92299.19;;;22.77
72405;BMP280;60395;52.020;113.548;2023-06-14T02:54:32;92300.56;;;22.68
72405;BMP280;60395;52.020;113.548;2023-06-14T02:57:35;92293.28;;;22.38
72405;BMP280;60395;52.020;113.548;2023-06-14T03:00:39;92286.06;;;22.18
72405;BMP280;60395;52.020;113.548;2023-06-14T03:03:43;92275.81;;;22.39
72405;BMP280;60395;52.020;113.548;2023-06-14T03:06:47;92271.97;;;22.75
72405;BMP280;60395;52.020;113.548;2023-06-14T03:09:55;92266.25;;;23.06
72405;BMP280;60395;52.020;113.548;2023-06-14T03:12:58;92264.91;;;23.25
72405;BMP280;60395;52.020;113.548;2023-06-14T03:16:02;92273.78;;;23.40
72405;BMP280;60395;52.020;113.548;2023-06-14T03:19:09;92257.56;;;23.59
72405;BMP280;60395;52.020;113.548;2023-06-14T03:22:13;92256.81;;;23.69
72405;BMP280;60395;52.020;113.548;2023-06-14T03:25:16;92257.44;;;23.87
72405;BMP280;60395;52.020;113.548;2023-06-14T03:28:22;92252.84;;;24.03
72405;BMP280;60395;52.020;113.548;2023-06-14T03:31:29;92240.53;;;24.23
72405;BMP280;60395;52.020;113.548;2023-06-14T03:34:37;92235.31;;;24.29
72405;BMP280;60395;52.020;113.548;2023-06-14T03:37:50;92229.81;;;24.06
72405;BMP280;60395;52.020;113.548;2023-06-14T03:40:53;92224.44;;;24.31
72405;BMP280;60395;52.020;113.548;2023-06-14T03:43:56;92226.06;;;24.69
72405;BMP280;60395;52.020;113.548;2023-06-14T03:47:00;92215.50;;;24.99
72405;BMP280;60395;52.020;113.548;2023-06-14T03:50:04;92206.09;;;25.39
72405;BMP280;60395;52.020;113.548;2023-06-14T03:53:09;92208.34;;;25.60
72405;BMP280;60395;52.020;113.548;2023-06-14T03:56:15;92195.44;;;25.45
72405;BMP280;60395;52.020;113.548;2023-06-14T03:59:18;92190.94;;;24.80
72405;BMP280;60395;52.020;113.548;2023-06-14T04:02:22;92179.41;;;24.40
72405;BMP280;60395;52.020;113.548;2023-06-14T04:05:26;92181.84;;;24.19
72405;BMP280;60395;52.020;113.548;2023-06-14T04:08:31;92181.72;;;23.78
72405;BMP280;60395;52.020;113.548;2023-06-14T04:11:34;92183.31;;;23.75
72405;BMP280;60395;52.020;113.548;2023-06-14T04:14:41;92179.66;;;23.96
72405;BMP280;60395;52.020;113.548;2023-06-14T04:17:45;92178.34;;;24.20
72405;BMP280;60395;52.020;113.548;2023-06-14T04:20:50;92177.09;;;24.60
72405;BMP280;60395;52.020;113.548;2023-06-14T04:23:54;92169.34;;;24.97
72405;BMP280;60395;52.020;113.548;2023-06-14T04:27:01;92165.22;;;25.06
72405;BMP280;60395;52.020;113.548;2023-06-14T04:30:06;92169.56;;;24.54
72405;BMP280;60395;52.020;113.548;2023-06-14T04:33:15;92165.97;;;24.32
72405;BMP280;60395;52.020;113.548;2023-06-14T04:36:20;92156.97;;;24.35
72405;BMP280;60395;52.020;113.548;2023-06-14T04:39:24;92163.50;;;24.21
72405;BMP280;60395;52.020;113.548;2023-06-14T04:42:29;92158.13;;;24.21
72405;BMP280;60395;52.020;113.548;2023-06-14T04:45:35;92152.44;;;24.34
72405;BMP280;60395;52.020;113.548;2023-06-14T04:48:41;92143.31;;;24.63
72405;BMP280;60395;52.020;113.548;2023-06-14T04:51:46;92134.09;;;24.68
72405;BMP280;60395;52.020;113.548;2023-06-14T04:54:51;92133.22;;;24.55
72405;BMP280;60395;52.020;113.548;2023-06-14T04:57:57;92120.09;;;24.59
72405;BMP280;60395;52.020;113.548;2023-06-14T05:01:01;92118.00;;;24.68
72405;BMP280;60395;52.020;113.548;2023-06-14T05:04:05;92121.47;;;25.23
72405;BMP280;60395;52.020;113.548;2023-06-14T05:07:09;92110.16;;;25.14
72405;BMP280;60395;52.020;113.548;2023-06-14T05:10:13;92115.63;;;25.44
72405;BMP280;60395;52.020;113.548;2023-06-14T05:13:17;92123.06;;;25.20
72405;BMP280;60395;52.020;113.548;2023-06-14T05:16:21;92111.94;;;25.47
72405;BMP280;60395;52.020;113.548;2023-06-14T05:19:28;92102.28;;;25.66
72405;BMP280;60395;52.020;113.548;2023-06-14T05:22:31;92099.03;;;25.57
72405;BMP280;60395;52.020;113.548;2023-06-14T05:25:35;92108.72;;;25.53
72405;BMP280;60395;52.020;113.548;2023-06-14T05:28:38;92080.28;;;25.33
72405;BMP280;60395;52.020;113.548;2023-06-14T05:31:41;92085.25;;;24.74
72405;BMP280;60395;52.020;113.548;2023-06-14T05:34:45;92093.09;;;24.53
72405;BMP280;60395;52.020;113.548;2023-06-14T05:37:49;92089.91;;;24.67
72405;BMP280;60395;52.020;113.548;2023-06-14T05:40:52;92084.63;;;24.98
72405;BMP280;60395;52.020;113.548;2023-06-14T05:43:56;92082.63;;;25.13
72405;BMP280;60395;52.020;113.548;2023-06-14T05:47:00;92084.63;;;25.21
72405;BMP280;60395;52.020;113.548;2023-06-14T05:50:03;92079.88;;;25.22
72405;BMP280;60395;52.020;113.548;2023-06-14T05:53:07;92077.59;;;25.09
72405;BMP280;60395;52.020;113.548;2023-06-14T05:56:10;92064.84;;;25.01
72405;BMP280;60395;52.020;113.548;2023-06-14T05:59:13;92067.41;;;25.18
72405;BMP280;60395;52.020;113.548;2023-06-14T06:02:17;92050.88;;;25.46
72405;BMP280;60395;52.020;113.548;2023-06-14T06:05:20;92048.84;;;25.77
72405;BMP280;60395;52.020;113.548;2023-06-14T06:08:23;92063.38;;;25.80
72405;BMP280;60395;52.020;113.548;2023-06-14T06:11:26;92057.00;;;25.83
72405;BMP280;60395;52.020;113.548;2023-06-14T06:14:41;92053.06;;;25.97
72405;BMP280;60395;52.020;113.548;2023-06-14T06:17:45;92056.50;;;26.11
72405;BMP280;60395;52.020;113.548;2023-06-14T06:20:57;92063.44;;;26.01
72405;BMP280;60395;52.020;113.548;2023-06-14T06:24:01;92059.22;;;25.96
72405;BMP280;60395;52.020;113.548;2023-06-14T06:27:06;92052.75;;;26.08
72405;BMP280;60395;52.020;113.548;2023-06-14T06:30:11;92052.50;;;26.40
72405;BMP280;60395;52.020;113.548;2023-06-14T06:33:14;92045.41;;;26.73
72405;BMP280;60395;52.020;113.548;2023-06-14T06:36:18;92043.25;;;26.89
72405;BMP280;60395;52.020;113.548;2023-06-14T06:39:21;92031.50;;;26.71
72405;BMP280;60395;52.020;113.548;2023-06-14T06:42:25;92040.22;;;25.98
72405;BMP280;60395;52.020;113.548;2023-06-14T06:45:32;92040.25;;;25.83
72405;BMP280;60395;52.020;113.548;2023-06-14T06:48:36;92042.53;;;26.02
72405;BMP280;60395;52.020;113.548;2023-06-14T06:51:42;92037.88;;;26.46
72405;BMP280;60395;52.020;113.548;2023-06-14T06:54:46;92040.16;;;26.65
72405;BMP280;60395;52.020;113.548;2023-06-14T06:57:49;92030.34;;;26.40
72405;BMP280;60395;52.020;113.548;2023-06-14T07:00:54;92022.91;;;26.03
72405;BMP280;60395;52.020;113.548;2023-06-14T07:03:58;92033.22;;;25.86
72405;BMP280;60395;52.020;113.548;2023-06-14T07:07:02;92030.81;;;25.75
72405;BMP280;60395;52.020;113.548;2023-06-14T07:10:06;92010.00;;;25.52
72405;BMP280;60395;52.020;113.548;2023-06-14T07:13:10;92020.25;;;25.28
72405;BMP280;60395;52.020;113.548;2023-06-14T07:16:13;92006.56;;;25.15
72405;BMP280;60395;52.020;113.548;2023-06-14T07:19:17;92010.75;;;25.44
72405;BMP280;60395;52.020;113.548;2023-06-14T07:22:20;92004.19;;;25.80
72405;BMP280;60395;52.020;113.548;2023-06-14T07:25:23;92005.19;;;25.76
72405;BMP280;60395;52.020;113.548;2023-06-14T07:28:27;92004.84;;;25.50
72405;BMP280;60395;52.020;113.548;2023-06-14T07:31:30;92003.28;;;25.29
72405;BMP280;60395;52.020;113.548;2023-06-14T07:34:33;91985.34;;;25.19
72405;BMP280;60395;52.020;113.548;2023-06-14T07:37:36;91991.91;;;25.14
72405;BMP280;60395;52.020;113.548;2023-06-14T07:40:40;91991.97;;;25.05
72405;BMP280;60395;52.020;113.548;2023-06-14T07:43:43;91986.50;;;24.99
72405;BMP280;60395;52.020;113.548;2023-06-14T07:46:46;91977.03;;;24.76
72405;BMP280;60395;52.020;113.548;2023-06-14T07:49:52;91975.25;;;24.57
72405;BMP280;60395;52.020;113.548;2023-06-14T08:53:31;91936.97;;;23.54
72405;BMP280;60395;52.020;113.548;2023-06-14T08:56:41;91935.91;;;23.51
72405;BMP280;60395;52.020;113.548;2023-06-14T08:59:47;91931.56;;;23.71
72405;BMP280;60395;52.020;113.548;2023-06-14T09:02:56;91935.72;;;23.93
72405;BMP280;60395;52.020;113.548;2023-06-14T09:06:03;91938.88;;;23.96
72405;BMP280;60395;52.020;113.548;2023-06-14T09:09:07;91926.63;;;23.82
72405;BMP280;60395;52.020;113.548;2023-06-14T09:12:11;91930.84;;;23.64
72405;BMP280;60395;52.020;113.548;2023-06-14T09:15:15;91917.63;;;23.45
72405;BMP280;60395;52.020;113.548;2023-06-14T09:18:19;91915.25;;;23.49
72405;BMP280;60395;52.020;113.548;2023-06-14T09:21:23;91911.09;;;24.00
72405;BMP280;60395;52.020;113.548;2023-06-14T09:24:26;91911.00;;;24.17
72405;BMP280;60395;52.020;113.548;2023-06-14T09:27:30;91913.31;;;24.21
72405;BMP280;60395;52.020;113.548;2023-06-14T09:30:38;91911.03;;;24.32
72405;BMP280;60395;52.020;113.548;2023-06-14T09:33:45;91911.28;;;24.45
72405;BMP280;60395;52.020;113.548;2023-06-14T09:36:51;91902.75;;;24.19
72405;BMP280;60395;52.020;113.548;2023-06-14T09:39:54;91908.84;;;23.78
72405;BMP280;60395;52.020;113.548;2023-06-14T09:42:58;91911.78;;;23.51
72405;BMP280;60395;52.020;113.548;2023-06-14T09:46:03;91905.66;;;23.44
72405;BMP280;60395;52.020;113.548;2023-06-14T09:49:08;91902.72;;;23.22
72405;BMP280;60395;52.020;113.548;2023-06-14T09:52:16;91898.31;;;23.10
72405;BMP280;60395;52.020;113.548;2023-06-14T09:55:20;91903.41;;;22.88
72405;BMP280;60395;52.020;113.548;2023-06-14T09:58:26;91900.59;;;22.82
72405;BMP280;60395;52.020;113.548;2023-06-14T10:01:31;91903.13;;;22.75
72405;BMP280;60395;52.020;113.548;2023-06-14T10:04:37;91900.75;;;22.71
72405;BMP280;60395;52.020;113.548;2023-06-14T10:07:48;91907.19;;;22.66
72405;BMP280;60395;52.020;113.548;2023-06-14T10:10:52;91905.47;;;22.54
72405;BMP280;60395;52.020;113.548;2023-06-14T10:13:57;91897.78;;;22.50
72405;BMP280;60395;52.020;113.548;2023-06-14T10:17:10;91901.88;;;22.49
72405;BMP280;60395;52.020;113.548;2023-06-14T10:20:37;91896.34;;;22.51
72405;BMP280;60395;52.020;113.548;2023-06-14T10:23:44;91904.69;;;22.55
72405;BMP280;60395;52.020;113.548;2023-06-14T10:26:56;91898.56;;;22.65
72405;BMP280;60395;52.020;113.548;2023-06-14T10:30:03;91906.28;;;22.69
72405;BMP280;60395;52.020;113.548;2023-06-14T10:33:07;91912.56;;;22.66
72405;BMP280;60395;52.020;113.548;2023-06-14T10:39:27;91909.09;;;22.50
72405;BMP280;60395;52.020;113.548;2023-06-14T10:42:31;91911.78;;;22.67
72405;BMP280;60395;52.020;113.548;2023-06-14T10:45:36;91902.19;;;22.70
72405;BMP280;60395;52.020;113.548;2023-06-14T10:48:41;91902.31;;;22.77
72405;BMP280;60395;52.020;113.548;2023-06-14T10:51:51;91902.81;;;22.79
72405;BMP280;60395;52.020;113.548;2023-06-14T10:55:03;91909.41;;;22.80
72405;BMP280;60395;52.020;113.548;2023-06-14T10:58:13;91917.94;;;22.74
72405;BMP280;60395;52.020;113.548;2023-06-14T11:01:30;91917.28;;;22.74
72405;BMP280;60395;52.020;113.548;2023-06-14T11:05:05;91911.00;;;22.60
72405;BMP280;60395;52.020;113.548;2023-06-14T11:11:42;91918.38;;;22.25
72405;BMP280;60395;52.020;113.548;2023-06-14T11:14:48;91914.09;;;22.11
72405;BMP280;60395;52.020;113.548;2023-06-14T11:17:52;91919.56;;;22.01
72405;BMP280;60395;52.020;113.548;2023-06-14T11:20:58;91917.84;;;21.97
72405;BMP280;60395;52.020;113.548;2023-06-14T11:24:03;91903.97;;;21.86
72405;BMP280;60395;52.020;113.548;2023-06-14T11:27:07;91903.47;;;21.75
72405;BMP280;60395;52.020;113.548;2023-06-14T11:30:13;91906.41;;;21.62
72405;BMP280;60395;52.020;113.548;2023-06-14T11:33:20;91903.53;;;21.56
72405;BMP280;60395;52.020;113.548;2023-06-14T11:36:28;91902.44;;;21.53
72405;BMP280;60395;52.020;113.548;2023-06-14T11:39:44;91899.66;;;21.63
72405;BMP280;60395;52.020;113.548;2023-06-14T11:42:49;91896.16;;;21.56
72405;BMP280;60395;52.020;113.548;2023-06-14T11:45:56;91900.06;;;21.49
72405;BMP280;60395;52.020;113.548;2023-06-14T11:49:10;91900.03;;;21.40
72405;BMP280;60395;52.020;113.548;2023-06-14T11:52:15;91895.56;;;21.28
72405;BMP280;60395;52.020;113.548;2023-06-14T11:55:19;91891.16;;;21.25
72405;BMP280;60395;52.020;113.548;2023-06-14T11:58:27;91886.41;;;21.17
72405;BMP280;60395;52.020;113.548;2023-06-14T12:01:44;91893.91;;;21.14
72405;BMP280;60395;52.020;113.548;2023-06-14T12:04:49;91891.84;;;21.06
72405;BMP280;60395;52.020;113.548;2023-06-14T12:07:59;91891.34;;;21.04
72405;BMP280;60395;52.020;113.548;2023-06-14T12:11:10;91887.34;;;20.94
72405;BMP280;60395;52.020;113.548;2023-06-14T12:14:15;91889.63;;;20.81
72405;BMP280;60395;52.020;113.548;2023-06-14T12:17:22;91894.91;;;20.72
72405;BMP280;60395;52.020;113.548;2023-06-14T12:20:30;91896.09;;;20.65
72405;BMP280;60395;52.020;113.548;2023-06-14T12:23:47;91891.19;;;20.59
72405;BMP280;60395;52.020;113.548;2023-06-14T12:26:51;91896.13;;;20.46
72405;BMP280;60395;52.020;113.548;2023-06-14T12:30:02;91893.38;;;20.37
72405;BMP280;60395;52.020;113.548;2023-06-14T12:33:06;91887.13;;;20.21
72405;BMP280;60395;52.020;113.548;2023-06-14T12:36:10;91890.31;;;20.13
72405;BMP280;60395;52.020;113.548;2023-06-14T12:39:14;91893.53;;;20.05
72405;BMP280;60395;52.020;113.548;2023-06-14T12:42:17;91894.22;;;19.95
72405;BMP280;60395;52.020;113.548;2023-06-14T12:45:21;91898.59;;;19.80
72405;BMP280;60395;52.020;113.548;2023-06-14T12:48:26;91904.22;;;19.65
72405;BMP280;60395;52.020;113.548;2023-06-14T12:51:33;91899.69;;;19.53
72405;BMP280;60395;52.020;113.548;2023-06-14T12:54:38;91904.78;;;19.46
72405;BMP280;60395;52.020;113.548;2023-06-14T12:57:42;91891.34;;;19.38
72405;BMP280;60395;52.020;113.548;2023-06-14T13:00:46;91896.94;;;19.34
72405;BMP280;60395;52.020;113.548;2023-06-14T13:03:50;91901.25;;;19.29
72405;BMP280;60395;52.020;113.548;2023-06-14T13:06:56;91909.13;;;19.20
72405;BMP280;60395;52.020;113.548;2023-06-14T13:09:59;91916.00;;;19.07
72405;BMP280;60395;52.020;113.548;2023-06-14T13:13:03;91903.06;;;19.01
72405;BMP280;60395;52.020;113.548;2023-06-14T13:16:06;91909.78;;;19.00
72405;BMP280;60395;52.020;113.548;2023-06-14T13:19:10;91903.56;;;18.92
72405;BMP280;60395;52.020;113.548;2023-06-14T13:22:13;91907.88;;;18.87
72405;BMP280;60395;52.020;113.548;2023-06-14T13:25:16;91908.13;;;18.83
72405;BMP280;60395;52.020;113.548;2023-06-14T13:28:20;91910.03;;;18.85
72405;BMP280;60395;52.020;113.548;2023-06-14T13:31:23;91911.94;;;18.76
72405;BMP280;60395;52.020;113.548;2023-06-14T13:34:27;91912.06;;;18.63
72405;BMP280;60395;52.020;113.548;2023-06-14T13:37:31;91909.47;;;18.51
72405;BMP280;60395;52.020;113.548;2023-06-14T13:40:35;91912.78;;;18.41
72405;BMP280;60395;52.020;113.548;2023-06-14T13:43:38;91911.22;;;18.33
72405;BMP280;60395;52.020;113.548;2023-06-14T13:46:41;91907.78;;;18.24
72405;BMP280;60395;52.020;113.548;2023-06-14T13:49:45;91898.66;;;18.21
72405;BMP280;60395;52.020;113.548;2023-06-14T13:52:48;91896.38;;;18.15
72405;BMP280;60395;52.020;113.548;2023-06-14T13:55:52;91901.53;;;18.06
72405;BMP280;60395;52.020;113.548;2023-06-14T13:58:55;91899.22;;;18.00
72405;BMP280;60395;52.020;113.548;2023-06-14T14:02:01;91897.94;;;17.89
72405;BMP280;60395;52.020;113.548;2023-06-14T14:05:05;91902.84;;;17.84
72405;BMP280;60395;52.020;113.548;2023-06-14T14:08:08;91905.97;;;17.76
72405;BMP280;60395;52.020;113.548;2023-06-14T14:11:12;91906.19;;;17.72
72405;BMP280;60395;52.020;113.548;2023-06-14T14:14:15;91907.31;;;17.64
72405;BMP280;60395;52.020;113.548;2023-06-14T14:17:18;91905.34;;;17.52
72405;BMP280;60395;52.020;113.548;2023-06-14T14:20:22;91905.47;;;17.50
72405;BMP280;60395;52.020;113.548;2023-06-14T14:23:25;91906.56;;;17.43
72405;BMP280;60395;52.020;113.548;2023-06-14T14:26:28;91901.69;;;17.35
72405;BMP280;60395;52.020;113.548;2023-06-14T14:29:32;91900.13;;;17.27
72405;BMP280;60395;52.020;113.548;2023-06-14T14:32:35;91900.66;;;17.30
72405;BMP280;60395;52.020;113.548;2023-06-14T14:35:38;91896.19;;;17.26
72405;BMP280;60395;52.020;113.548;2023-06-14T14:38:42;91895.59;;;17.26
72405;BMP280;60395;52.020;113.548;2023-06-14T14:41:45;91905.56;;;17.25
72405;BMP280;60395;52.020;113.548;2023-06-14T14:44:48;91906.19;;;17.26
72405;BMP280;60395;52.020;113.548;2023-06-14T14:47:52;91901.19;;;17.32
72405;BMP280;60395;52.020;113.548;2023-06-14T14:50:57;91902.75;;;17.40
72405;BMP280;60395;52.020;113.548;2023-06-14T14:54:00;91898.47;;;17.45
72405;BMP280;60395;52.020;113.548;2023-06-14T14:57:04;91897.63;;;17.48
72405;BMP280;60395;52.020;113.548;2023-06-14T15:00:08;91890.78;;;17.51
72405;BMP280;60395;52.020;113.548;2023-06-14T15:03:12;91904.34;;;17.58
72405;BMP280;60395;52.020;113.548;2023-06-14T15:06:16;91900.38;;;17.46
72405;BMP280;60395;52.020;113.548;2023-06-14T15:09:20;91899.88;;;17.44
72405;BMP280;60395;52.020;113.548;2023-06-14T15:12:23;91902.53;;;17.44
72405;BMP280;60395;52.020;113.548;2023-06-14T15:15:29;91914.41;;;17.45
72405;BMP280;60395;52.020;113.548;2023-06-14T15:18:32;91914.69;;;17.51
72405;BMP280;60395;52.020;113.548;2023-06-14T15:21:35;91917.72;;;17.56
72405;BMP280;60395;52.020;113.548;2023-06-14T15:24:39;91910.81;;;17.61
72405;BMP280;60395;52.020;113.548;2023-06-14T15:27:45;91911.75;;;17.68
72405;BMP280;60395;52.020;113.548;2023-06-14T15:30:48;91917.34;;;17.75
72405;BMP280;60395;52.020;113.548;2023-06-14T15:33:51;91919.00;;;17.80
72405;BMP280;60395;52.020;113.548;2023-06-14T15:36:55;91918.50;;;17.78
72405;BMP280;60395;52.020;113.548;2023-06-14T15:39:58;91912.66;;;17.75
72405;BMP280;60395;52.020;113.548;2023-06-14T15:43:02;91910.59;;;17.65
72405;BMP280;60395;52.020;113.548;2023-06-14T15:46:06;91914.09;;;17.61
72405;BMP280;60395;52.020;113.548;2023-06-14T15:49:10;91920.59;;;17.64
72405;BMP280;60395;52.020;113.548;2023-06-14T15:52:13;91913.25;;;17.65
72405;BMP280;60395;52.020;113.548;2023-06-14T15:55:18;91915.13;;;17.66
72405;BMP280;60395;52.020;113.548;2023-06-14T15:58:21;91920.88;;;17.71
72405;BMP280;60395;52.020;113.548;2023-06-14T16:01:26;91923.44;;;17.60
72405;BMP280;60395;52.020;113.548;2023-06-14T16:04:30;91909.91;;;17.54
72405;BMP280;60395;52.020;113.548;2023-06-14T16:07:33;91913.63;;;17.46
72405;BMP280;60395;52.020;113.548;2023-06-14T16:10:36;91915.56;;;17.48
72405;BMP280;60395;52.020;113.548;2023-06-14T16:13:41;91917.13;;;17.55
72405;BMP280;60395;52.020;113.548;2023-06-14T16:16:44;91919.41;;;17.61
72405;BMP280;60395;52.020;113.548;2023-06-14T16:19:52;91920.28;;;17.58
72405;BMP280;60395;52.020;113.548;2023-06-14T16:22:55;91921.66;;;17.57
72405;BMP280;60395;52.020;113.548;2023-06-14T16:25:58;91922.94;;;17.58
72405;BMP280;60395;52.020;113.548;2023-06-14T16:29:01;91917.53;;;17.60
72405;BMP280;60395;52.020;113.548;2023-06-14T16:32:05;91910.31;;;17.58
72405;BMP280;60395;52.020;113.548;2023-06-14T16:35:08;91904.34;;;17.58
72405;BMP280;60395;52.020;113.548;2023-06-14T16:38:12;91911.59;;;17.59
72405;BMP280;60395;52.020;113.548;2023-06-14T16:41:15;91905.41;;;17.63
72405;BMP280;60395;52.020;113.548;2023-06-14T16:44:18;91911.84;;;17.66
72405;BMP280;60395;52.020;113.548;2023-06-14T16:47:22;91908.22;;;17.72
72405;BMP280;60395;52.020;113.548;2023-06-14T16:50:25;91918.09;;;17.73
72405;BMP280;60395;52.020;113.548;2023-06-14T16:53:29;91913.31;;;17.76
72405;BMP280;60395;52.020;113.548;2023-06-14T16:56:32;91912.03;;;17.75
72405;BMP280;60395;52.020;113.548;2023-06-14T16:59:35;91910.63;;;17.76
72405;BMP280;60395;52.020;113.548;2023-06-14T17:02:38;91909.78;;;17.79
72405;BMP280;60395;52.020;113.548;2023-06-14T17:05:58;91912.44;;;17.79
72405;BMP280;60395;52.020;113.548;2023-06-14T17:09:01;91915.97;;;17.76
72405;BMP280;60395;52.020;113.548;2023-06-14T17:12:05;91913.31;;;17.76
72405;BMP280;60395;52.020;113.548;2023-06-14T17:15:09;91905.63;;;17.82
72405;BMP280;60395;52.020;113.548;2023-06-14T17:18:12;91907.22;;;17.77
72405;BMP280;60395;52.020;113.548;2023-06-14T17:21:16;91896.56;;;17.66
72405;BMP280;60395;52.020;113.548;2023-06-14T17:24:22;91893.00;;;17.59
72405;BMP280;60395;52.020;113.548;2023-06-14T17:27:27;91903.63;;;17.59
72405;BMP280;60395;52.020;113.548;2023-06-14T17:30:30;91898.06;;;17.63
72405;BMP280;60395;52.020;113.548;2023-06-14T17:33:34;91897.72;;;17.70
72405;BMP280;60395;52.020;113.548;2023-06-14T17:36:37;91886.97;;;17.72
72405;BMP280;60395;52.020;113.548;2023-06-14T17:39:40;91890.03;;;17.76
72405;BMP280;60395;52.020;113.548;2023-06-14T17:42:44;91885.50;;;17.75
72405;BMP280;60395;52.020;113.548;2023-06-14T17:45:47;91883.69;;;17.71
72405;BMP280;60395;52.020;113.548;2023-06-14T17:48:50;91886.16;;;17.62
72405;BMP280;60395;52.020;113.548;2023-06-14T17:51:54;91887.22;;;17.44
72405;BMP280;60395;52.020;113.548;2023-06-14T17:54:57;91882.19;;;17.28
72405;BMP280;60395;52.020;113.548;2023-06-14T17:58:02;91885.63;;;17.14
72405;BMP280;60395;52.020;113.548;2023-06-14T18:01:06;91881.22;;;17.10
72405;BMP280;60395;52.020;113.548;2023-06-14T18:04:10;91884.75;;;17.17
72405;BMP280;60395;52.020;113.548;2023-06-14T18:07:14;91886.09;;;17.29
72405;BMP280;60395;52.020;113.548;2023-06-14T18:10:17;91882.09;;;17.30
72405;BMP280;60395;52.020;113.548;2023-06-14T18:13:21;91885.06;;;17.24
72405;BMP280;60395;52.020;113.548;2023-06-14T18:16:25;91882.00;;;17.19
72405;BMP280;60395;52.020;113.548;2023-06-14T18:19:29;91874.06;;;17.19
72405;BMP280;60395;52.020;113.548;2023-06-14T18:22:32;91881.22;;;17.10
72405;BMP280;60395;52.020;113.548;2023-06-14T18:25:35;91879.22;;;16.98